createdAt,value
2019-02-28T06:17:42.137Z,40.00
2019-02-28T06:21:42.090Z,60.00
2019-02-28T06:29:08.586Z,108.00
2019-02-28T06:30:08.933Z,112.00
2019-02-28T06:31:08.561Z,116.00
2019-02-28T06:32:08.553Z,128.00
2019-02-28T06:33:08.539Z,136.00
2019-02-28T06:34:09.279Z,140.00
2019-02-28T06:35:08.703Z,148.00
2019-02-28T06:36:08.498Z,152.00
2019-02-28T06:37:08.474Z,164.00
2019-02-28T06:38:08.499Z,172.00
2019-02-28T06:39:08.448Z,180.00
2019-02-28T06:40:08.448Z,188.00
2019-02-28T06:41:08.740Z,196.00
2019-02-28T06:42:08.437Z,204.00
2019-02-28T06:43:08.426Z,212.00
2019-02-28T06:44:08.388Z,220.00
2019-02-28T06:45:08.398Z,232.00
2019-02-28T06:46:08.724Z,236.00
2019-02-28T06:47:11.263Z,248.00
2019-02-28T06:48:08.353Z,256.00
2019-02-28T06:49:08.362Z,264.00
2019-02-28T06:50:08.348Z,272.00
2019-02-28T06:51:08.313Z,280.00
2019-02-28T06:52:08.305Z,292.00
2019-02-28T06:53:08.335Z,300.00
2019-02-28T06:54:08.760Z,308.00
2019-02-28T06:55:08.283Z,316.00
2019-02-28T06:56:08.256Z,324.00
2019-02-28T06:57:08.249Z,328.00
2019-02-28T06:58:08.243Z,336.00
2019-02-28T06:59:08.224Z,348.00
2019-02-28T07:00:10.354Z,356.00
2019-02-28T07:01:08.218Z,360.00
2019-02-28T07:02:09.007Z,368.00
2019-02-28T07:03:08.177Z,376.00
2019-02-28T07:04:08.182Z,384.00
2019-02-28T07:05:08.161Z,392.00
2019-02-28T07:06:08.141Z,400.00
2019-02-28T07:07:10.187Z,408.00
2019-02-28T07:08:08.511Z,412.00
2019-02-28T07:09:08.111Z,420.00
2019-02-28T07:10:09.695Z,428.00
2019-02-28T07:11:11.993Z,436.00
2019-02-28T07:12:08.089Z,444.00
2019-02-28T07:13:08.062Z,448.00
2019-02-28T07:14:12.704Z,456.00
2019-02-28T07:15:08.049Z,460.00
2019-02-28T07:16:08.095Z,468.00
2019-02-28T07:17:10.735Z,476.00
2019-02-28T07:18:08.152Z,484.00
2019-02-28T07:19:08.001Z,492.00
2019-02-28T07:20:09.624Z,496.00
2019-02-28T07:21:08.656Z,504.00
2019-02-28T07:22:07.960Z,508.00
2019-02-28T07:23:07.964Z,512.00
2019-02-28T07:24:07.938Z,516.00
2019-02-28T07:25:09.557Z,524.00
2019-02-28T07:26:07.923Z,528.00
2019-02-28T07:27:07.992Z,532.00
2019-02-28T07:28:07.889Z,540.00
2019-02-28T07:29:11.140Z,544.00
2019-02-28T07:30:07.887Z,548.00
2019-02-28T07:31:07.870Z,552.00
2019-02-28T07:32:07.845Z,560.00
2019-02-28T07:33:10.598Z,568.00
2019-02-28T07:34:08.847Z,568.00
2019-02-28T07:35:07.826Z,576.00
2019-02-28T07:36:09.441Z,580.00
2019-02-28T07:37:07.806Z,588.00
2019-02-28T07:38:07.786Z,588.00
2019-02-28T07:39:07.792Z,592.00
2019-02-28T07:40:07.789Z,600.00
2019-02-28T07:41:07.746Z,604.00
2019-02-28T07:42:07.746Z,604.00
2019-02-28T07:43:12.121Z,608.00
2019-02-28T07:44:07.725Z,616.00
2019-02-28T07:45:07.706Z,620.00
2019-02-28T07:46:08.783Z,620.00
2019-02-28T07:47:07.689Z,624.00
2019-02-28T07:48:07.670Z,632.00
2019-02-28T07:49:07.666Z,632.00
2019-02-28T07:50:10.719Z,636.00
2019-02-28T07:51:07.640Z,644.00
2019-02-28T07:52:07.621Z,648.00
2019-02-28T07:53:08.851Z,656.00
2019-02-28T07:54:07.609Z,660.00
2019-02-28T07:55:07.585Z,668.00
2019-02-28T07:56:07.887Z,680.00
2019-02-28T07:57:07.578Z,688.00
2019-02-28T07:58:07.567Z,696.00
2019-02-28T07:59:07.543Z,696.00
2019-02-28T08:00:07.534Z,696.00
2019-02-28T08:01:07.533Z,696.00
2019-02-28T08:02:07.509Z,696.00
2019-02-28T08:18:45.373Z,776.00
2019-02-28T08:19:45.300Z,784.00
2019-02-28T08:20:45.304Z,780.00
2019-02-28T08:21:50.208Z,776.00
2019-02-28T08:22:45.275Z,780.00
2019-02-28T08:23:45.259Z,788.00
2019-02-28T08:24:45.287Z,784.00
2019-02-28T08:25:45.318Z,784.00
2019-02-28T08:26:45.229Z,780.00
2019-02-28T08:27:45.215Z,780.00
2019-02-28T08:28:45.180Z,780.00
2019-02-28T08:29:46.051Z,780.00
2019-02-28T08:30:47.273Z,780.00
2019-02-28T08:31:45.171Z,784.00
2019-02-28T08:32:47.081Z,784.00
2019-02-28T08:33:48.102Z,784.00
2019-02-28T08:34:46.871Z,784.00
2019-02-28T08:35:45.098Z,792.00
2019-02-28T08:36:46.961Z,792.00
2019-02-28T08:37:45.091Z,800.00
2019-02-28T08:38:45.094Z,812.00
2019-02-28T08:39:45.079Z,812.00
2019-02-28T08:40:50.575Z,824.00
2019-02-28T08:42:11.102Z,824.00
2019-02-28T08:43:13.483Z,828.00
2019-02-28T08:44:11.100Z,828.00
2019-02-28T08:45:11.104Z,836.00
2019-02-28T08:46:13.582Z,848.00
2019-02-28T08:47:11.090Z,856.00
2019-02-28T08:48:12.682Z,864.00
2019-02-28T08:49:11.041Z,864.00
2019-02-28T08:50:11.082Z,868.00
2019-02-28T08:51:11.009Z,876.00
2019-02-28T08:52:11.029Z,864.00
2019-02-28T08:53:12.438Z,868.00
2019-02-28T08:54:10.973Z,876.00
2019-02-28T08:55:10.966Z,876.00
2019-02-28T08:56:13.813Z,880.00
2019-02-28T08:57:12.935Z,892.00
2019-02-28T08:58:10.971Z,908.00
2019-02-28T08:59:12.028Z,932.00
2019-02-28T09:00:10.906Z,932.00
2019-02-28T09:01:11.096Z,968.00
2019-02-28T09:02:10.988Z,992.00
2019-02-28T09:03:10.872Z,960.00
2019-02-28T09:04:10.920Z,972.00
2019-02-28T09:05:10.882Z,972.00
2019-02-28T09:06:10.825Z,968.00
2019-02-28T09:07:14.841Z,980.00
2019-02-28T09:08:10.834Z,972.00
2019-02-28T09:09:10.800Z,972.00
2019-02-28T09:10:12.630Z,972.00
2019-02-28T09:11:10.977Z,976.00
2019-02-28T09:12:10.772Z,976.00
2019-02-28T09:13:10.756Z,960.00
2019-02-28T09:14:10.749Z,972.00
2019-02-28T09:15:10.747Z,980.00
2019-02-28T09:16:10.755Z,976.00
2019-02-28T09:17:10.719Z,988.00
2019-02-28T09:18:10.767Z,948.00
2019-02-28T09:19:10.705Z,976.00
2019-02-28T09:20:13.927Z,980.00
2019-02-28T09:21:10.693Z,944.00
2019-02-28T09:22:10.658Z,948.00
2019-02-28T09:23:10.650Z,952.00
2019-02-28T09:24:14.646Z,956.00
2019-02-28T09:25:10.644Z,948.00
2019-02-28T09:26:10.624Z,992.00
2019-02-28T09:27:12.239Z,1028.00
2019-02-28T09:28:13.176Z,1072.00
2019-02-28T09:29:10.575Z,1100.00
2019-02-28T09:30:10.568Z,1180.00
2019-02-28T09:31:10.566Z,1224.00
2019-02-28T09:32:13.605Z,1256.00
2019-02-28T09:33:10.520Z,1252.00
2019-02-28T09:34:10.545Z,1256.00
2019-02-28T09:35:13.829Z,1240.00
2019-02-28T09:36:10.502Z,1248.00
2019-02-28T09:37:10.556Z,1152.00
2019-02-28T09:38:13.358Z,1220.00
2019-02-28T09:39:10.467Z,1296.00
2019-02-28T09:40:10.456Z,1340.00
2019-02-28T09:41:10.444Z,1400.00
2019-02-28T09:42:14.844Z,1460.00
2019-02-28T09:43:10.502Z,1484.00
2019-02-28T09:44:10.597Z,1504.00
2019-02-28T09:45:10.428Z,1464.00
2019-02-28T09:46:12.415Z,1420.00
2019-02-28T09:47:11.812Z,1388.00
2019-02-28T09:48:10.360Z,1372.00
2019-02-28T09:49:12.919Z,1340.00
2019-02-28T09:50:10.329Z,1328.00
2019-02-28T09:51:10.412Z,1332.00
2019-02-28T09:52:10.314Z,1308.00
2019-02-28T09:53:15.580Z,1276.00
2019-02-28T09:54:32.523Z,1252.00
2019-02-28T09:55:35.305Z,1276.00
2019-02-28T09:56:32.505Z,1268.00
2019-02-28T09:57:32.475Z,1284.00
2019-02-28T09:58:32.476Z,1248.00
2019-02-28T09:59:37.490Z,1196.00
2019-02-28T10:00:32.450Z,1168.00
2019-02-28T10:01:32.446Z,1148.00
2019-02-28T10:02:32.419Z,1132.00
2019-02-28T10:03:32.416Z,1112.00
2019-02-28T10:04:32.415Z,1112.00
2019-02-28T10:05:32.467Z,1128.00
2019-02-28T10:06:33.225Z,1188.00
2019-02-28T10:07:32.386Z,1284.00
2019-02-28T10:08:33.557Z,1372.00
2019-02-28T10:09:32.348Z,1440.00
2019-02-28T10:10:32.352Z,1516.00
2019-02-28T10:11:32.617Z,1580.00
2019-02-28T10:12:32.419Z,1628.00
2019-02-28T10:13:32.305Z,1668.00
2019-02-28T10:14:34.527Z,1696.00
2019-02-28T10:15:32.297Z,1712.00
2019-02-28T10:16:32.267Z,1712.00
2019-02-28T10:17:32.283Z,1696.00
2019-02-28T10:18:35.537Z,1664.00
2019-02-28T10:19:54.379Z,1596.00
2019-02-28T10:20:54.554Z,1564.00
2019-02-28T10:21:54.360Z,1576.00
2019-02-28T10:22:54.334Z,1596.00
2019-02-28T10:23:57.016Z,1616.00
2019-02-28T10:24:54.301Z,1632.00
2019-02-28T10:25:54.299Z,1656.00
2019-02-28T10:26:54.311Z,1692.00
2019-02-28T10:27:54.794Z,1728.00
2019-02-28T10:28:54.259Z,1752.00
2019-02-28T10:29:54.281Z,1768.00
2019-02-28T10:30:54.234Z,1780.00
2019-02-28T10:31:54.309Z,1796.00
2019-02-28T10:32:54.207Z,1808.00
2019-02-28T10:33:54.198Z,1812.00
2019-02-28T10:34:54.209Z,1812.00
2019-02-28T10:35:54.193Z,1816.00
2019-02-28T10:36:54.895Z,1816.00
2019-02-28T10:37:57.706Z,1820.00
2019-02-28T10:38:54.154Z,1828.00
2019-02-28T10:39:54.135Z,1832.00
2019-02-28T10:40:54.150Z,1840.00
2019-02-28T10:41:54.124Z,1840.00
2019-02-28T10:42:54.129Z,1844.00
2019-02-28T10:43:55.945Z,1844.00
2019-02-28T10:44:54.145Z,1848.00
2019-02-28T10:45:54.094Z,1860.00
2019-02-28T10:46:54.734Z,1868.00
2019-02-28T10:47:54.043Z,1880.00
2019-02-28T10:48:54.335Z,1888.00
2019-02-28T10:49:55.373Z,1904.00
2019-02-28T10:50:54.012Z,1928.00
2019-02-28T10:51:54.010Z,1956.00
2019-02-28T10:52:54.006Z,1972.00
2019-02-28T10:53:53.987Z,1980.00
2019-02-28T10:54:53.971Z,1976.00
2019-02-28T10:55:57.568Z,1980.00
2019-02-28T10:56:53.942Z,1964.00
2019-02-28T10:57:53.933Z,1940.00
2019-02-28T10:58:53.972Z,1896.00
2019-02-28T10:59:55.144Z,1864.00
2019-02-28T11:00:53.949Z,1852.00
2019-02-28T11:01:53.943Z,1860.00
2019-02-28T11:02:57.285Z,1880.00
2019-02-28T11:03:53.954Z,1904.00
2019-02-28T11:04:53.854Z,1928.00
2019-02-28T11:05:54.470Z,1948.00
2019-02-28T11:06:53.849Z,1968.00
2019-02-28T11:07:53.817Z,1984.00
2019-02-28T11:08:53.828Z,1992.00
2019-02-28T11:09:55.657Z,1980.00
2019-02-28T11:10:53.896Z,1964.00
2019-02-28T11:11:53.776Z,1960.00
2019-02-28T11:12:54.253Z,1972.00
2019-02-28T11:13:53.774Z,1952.00
2019-02-28T11:14:55.040Z,1932.00
2019-02-28T11:15:53.739Z,1896.00
2019-02-28T11:16:58.935Z,1816.00
2019-02-28T11:18:16.823Z,1716.00
2019-02-28T11:19:18.621Z,1664.00
2019-02-28T11:20:22.061Z,1644.00
2019-02-28T11:21:38.577Z,1576.00
2019-02-28T11:22:39.711Z,1540.00
2019-02-28T11:23:38.487Z,1512.00
2019-02-28T11:24:38.428Z,1468.00
2019-02-28T11:25:38.394Z,1440.00
2019-02-28T11:26:41.284Z,1416.00
2019-02-28T11:28:00.390Z,1352.00
2019-02-28T11:29:03.017Z,1308.00
2019-02-28T11:30:00.369Z,1308.00
2019-02-28T11:31:00.345Z,1276.00
2019-02-28T11:32:00.379Z,1264.00
2019-02-28T11:33:03.505Z,1248.00
2019-02-28T11:34:00.342Z,1248.00
2019-02-28T11:35:00.342Z,1260.00
2019-02-28T11:36:00.295Z,1280.00
2019-02-28T11:37:00.283Z,1272.00
2019-02-28T11:38:00.265Z,1272.00
2019-02-28T11:39:00.272Z,1248.00
2019-02-28T11:40:00.299Z,1224.00
2019-02-28T11:41:00.248Z,1224.00
2019-02-28T11:42:00.228Z,1232.00
2019-02-28T11:43:02.640Z,1208.00
2019-02-28T11:44:00.203Z,1192.00
2019-02-28T11:45:00.262Z,1180.00
2019-02-28T11:46:02.796Z,1172.00
2019-02-28T11:47:00.185Z,1168.00
2019-02-28T11:48:00.162Z,1176.00
2019-02-28T11:49:00.150Z,1168.00
2019-02-28T11:50:00.328Z,1160.00
2019-02-28T11:51:00.125Z,1148.00
2019-02-28T11:52:00.155Z,1148.00
2019-02-28T11:53:04.920Z,1156.00
2019-02-28T11:54:00.099Z,1156.00
2019-02-28T11:55:00.075Z,1160.00
2019-02-28T11:56:00.080Z,1164.00
2019-02-28T11:57:02.539Z,1164.00
2019-02-28T11:58:00.112Z,1128.00
2019-02-28T11:59:00.058Z,1104.00
2019-02-28T12:00:00.513Z,1092.00
2019-02-28T12:01:02.182Z,1096.00
2019-02-28T12:02:00.016Z,1116.00
2019-02-28T12:03:00.951Z,1140.00
2019-02-28T12:03:59.995Z,1148.00
2019-02-28T12:04:59.966Z,1152.00
2019-02-28T12:05:59.993Z,1140.00
2019-02-28T12:07:00.965Z,1132.00
2019-02-28T12:07:59.937Z,1124.00
2019-02-28T12:08:59.967Z,1120.00
2019-02-28T12:09:59.919Z,1112.00
2019-02-28T12:11:01.874Z,1104.00
2019-02-28T12:12:00.010Z,1100.00
2019-02-28T12:12:59.991Z,1096.00
2019-02-28T12:13:59.941Z,1104.00
2019-02-28T12:15:02.769Z,1120.00
2019-02-28T12:16:21.520Z,1108.00
2019-02-28T12:17:21.525Z,1104.00
2019-02-28T12:18:21.536Z,1112.00
2019-02-28T12:19:21.485Z,1120.00
2019-02-28T12:20:25.879Z,1136.00
2019-02-28T12:21:24.435Z,1140.00
2019-02-28T12:22:21.459Z,1136.00
2019-02-28T12:23:23.537Z,1136.00
2019-02-28T12:24:21.453Z,1128.00
2019-02-28T12:25:21.443Z,1120.00
2019-02-28T12:26:21.410Z,1120.00
2019-02-28T12:27:24.340Z,1120.00
2019-02-28T12:28:21.387Z,1112.00
2019-02-28T12:29:21.389Z,1108.00
2019-02-28T12:30:21.914Z,1116.00
2019-02-28T12:31:21.372Z,1116.00
2019-02-28T12:32:21.339Z,1116.00
2019-02-28T12:33:23.310Z,1112.00
2019-02-28T12:34:21.338Z,1116.00
2019-02-28T12:35:21.311Z,1112.00
2019-02-28T12:36:21.375Z,1108.00
2019-02-28T12:37:22.122Z,1112.00
2019-02-28T12:38:21.281Z,1116.00
2019-02-28T12:39:21.278Z,1116.00
2019-02-28T12:40:21.243Z,1120.00
2019-02-28T12:41:21.583Z,1116.00
2019-02-28T12:42:21.297Z,1108.00
2019-02-28T12:43:21.230Z,1112.00
2019-02-28T12:44:21.291Z,1112.00
2019-02-28T12:45:24.255Z,1112.00
2019-02-28T12:46:21.184Z,1108.00
2019-02-28T12:47:21.189Z,1116.00
2019-02-28T12:48:21.188Z,1120.00
2019-02-28T12:49:22.432Z,1120.00
2019-02-28T12:50:21.156Z,1112.00
2019-02-28T12:51:21.128Z,1116.00
2019-02-28T12:52:21.129Z,1120.00
2019-02-28T12:53:24.130Z,1124.00
2019-02-28T12:54:21.107Z,1116.00
2019-02-28T12:55:21.096Z,1112.00
2019-02-28T12:56:21.071Z,1120.00
2019-02-28T12:57:22.377Z,1124.00
2019-02-28T12:58:21.056Z,1128.00
2019-02-28T12:59:21.064Z,1136.00
2019-02-28T13:00:23.506Z,1132.00
2019-02-28T13:01:22.045Z,1136.00
2019-02-28T13:02:21.049Z,1144.00
2019-02-28T13:03:21.256Z,1152.00
2019-02-28T13:04:20.980Z,1152.00
2019-02-28T13:05:21.041Z,1144.00
2019-02-28T13:06:23.879Z,1148.00
2019-02-28T13:07:20.955Z,1140.00
2019-02-28T13:08:20.952Z,1132.00
2019-02-28T13:09:20.951Z,1132.00
2019-02-28T13:10:26.774Z,1128.00
2019-02-28T13:11:42.541Z,1124.00
2019-02-28T13:12:44.274Z,1092.00
2019-02-28T13:13:43.180Z,1088.00
2019-02-28T13:14:48.207Z,1080.00
2019-02-28T13:15:45.427Z,1124.00
2019-02-28T13:16:42.473Z,1148.00
2019-02-28T13:17:42.482Z,1188.00
2019-02-28T13:18:43.744Z,1196.00
2019-02-28T13:19:42.441Z,1192.00
2019-02-28T13:20:42.421Z,1168.00
2019-02-28T13:21:43.592Z,1136.00
2019-02-28T13:22:42.437Z,1116.00
2019-02-28T13:23:42.390Z,1108.00
2019-02-28T13:24:45.858Z,1084.00
2019-02-28T13:25:43.716Z,1052.00
2019-02-28T13:26:42.350Z,1060.00
2019-02-28T13:27:45.286Z,1064.00
2019-02-28T13:28:42.344Z,1068.00
2019-02-28T13:29:42.535Z,1076.00
2019-02-28T13:30:48.967Z,1040.00
2019-02-28T13:32:04.566Z,916.00
2019-02-28T13:33:04.594Z,868.00
2019-02-28T13:34:04.557Z,880.00
2019-02-28T13:35:07.542Z,940.00
2019-02-28T13:36:04.524Z,1020.00
2019-02-28T13:37:04.507Z,1016.00
2019-02-28T13:38:04.504Z,1076.00
2019-02-28T13:39:04.515Z,1112.00
2019-02-28T13:40:08.357Z,1148.00
2019-02-28T13:41:04.580Z,1164.00
2019-02-28T13:42:04.524Z,1108.00
2019-02-28T13:43:04.449Z,1084.00
2019-02-28T13:44:04.447Z,1004.00
2019-02-28T13:45:13.256Z,964.00
2019-02-28T13:46:32.481Z,972.00
2019-02-28T14:01:58.425Z,1416.00
2019-02-28T14:02:58.408Z,1400.00
2019-02-28T14:03:58.411Z,1492.00
2019-02-28T14:04:58.757Z,1656.00
2019-02-28T14:05:58.372Z,1624.00
2019-02-28T14:06:58.361Z,1692.00
2019-02-28T14:07:58.391Z,1428.00
2019-02-28T14:08:58.358Z,872.00
2019-02-28T14:09:58.411Z,776.00
2019-02-28T14:10:59.326Z,656.00
2019-02-28T14:11:58.322Z,552.00
2019-02-28T14:12:58.314Z,620.00
2019-02-28T14:13:58.284Z,640.00
2019-02-28T14:14:58.269Z,592.00
2019-02-28T14:15:58.271Z,472.00
2019-02-28T14:17:00.910Z,440.00
2019-02-28T14:17:58.267Z,456.00
2019-02-28T14:18:58.342Z,408.00
2019-02-28T14:19:58.204Z,384.00
2019-02-28T14:20:59.501Z,364.00
2019-02-28T14:21:58.199Z,360.00
2019-02-28T14:22:58.299Z,392.00
2019-02-28T14:23:59.114Z,388.00
2019-02-28T14:24:58.149Z,368.00
2019-02-28T14:25:58.155Z,408.00
2019-02-28T14:26:58.136Z,392.00
2019-02-28T14:28:00.301Z,388.00
2019-02-28T14:28:58.109Z,396.00
2019-02-28T14:29:58.124Z,388.00
2019-02-28T14:30:58.785Z,436.00
2019-02-28T14:31:58.097Z,476.00
2019-02-28T14:32:58.083Z,588.00
2019-02-28T14:33:58.065Z,644.00
2019-02-28T14:34:59.929Z,760.00
2019-02-28T14:35:58.090Z,1000.00
2019-02-28T14:36:58.020Z,1240.00
2019-02-28T14:37:58.010Z,1524.00
2019-02-28T14:38:57.997Z,1548.00
2019-02-28T14:39:57.997Z,1592.00
2019-02-28T14:40:59.439Z,1672.00
2019-02-28T14:41:57.963Z,1692.00
2019-02-28T14:42:57.965Z,1564.00
2019-02-28T14:43:57.942Z,1552.00
2019-02-28T14:44:57.940Z,1536.00
2019-02-28T14:45:57.913Z,1444.00
2019-02-28T14:46:57.964Z,1396.00
2019-02-28T14:48:00.740Z,1456.00
2019-02-28T14:48:57.890Z,1352.00
2019-02-28T14:49:57.869Z,1256.00
2019-02-28T14:50:58.933Z,1280.00
2019-02-28T14:52:00.428Z,1364.00
2019-02-28T14:52:57.841Z,1340.00
2019-02-28T14:53:57.836Z,1272.00
2019-02-28T14:54:58.317Z,1180.00
2019-02-28T14:55:57.847Z,1128.00
2019-02-28T14:56:57.800Z,1028.00
2019-02-28T14:57:57.800Z,1032.00
2019-02-28T14:58:57.773Z,1028.00
2019-02-28T14:59:57.755Z,968.00
2019-02-28T15:00:57.763Z,928.00
2019-02-28T15:01:57.752Z,800.00
2019-02-28T15:02:59.480Z,900.00
2019-02-28T15:03:57.721Z,856.00
2019-02-28T15:04:57.712Z,736.00
2019-02-28T15:05:57.732Z,696.00
2019-02-28T15:06:57.677Z,796.00
2019-02-28T15:07:57.672Z,740.00
2019-02-28T15:08:57.647Z,732.00
2019-02-28T15:09:58.924Z,772.00
2019-02-28T15:10:57.678Z,812.00
2019-02-28T15:11:57.615Z,992.00
2019-02-28T15:12:58.637Z,860.00
2019-02-28T15:13:57.593Z,708.00
2019-02-28T15:14:57.672Z,640.00
2019-02-28T15:15:57.567Z,728.00
2019-02-28T15:16:57.613Z,740.00
2019-02-28T15:17:57.639Z,724.00
2019-02-28T15:18:57.550Z,628.00
2019-02-28T15:19:58.119Z,632.00
2019-02-28T15:20:57.516Z,664.00
2019-02-28T15:21:57.504Z,604.00
2019-02-28T15:22:59.602Z,648.00
2019-02-28T15:23:57.503Z,680.00
2019-02-28T15:24:57.463Z,644.00
2019-02-28T15:25:57.469Z,560.00
2019-02-28T15:26:57.445Z,508.00
2019-02-28T15:27:57.520Z,516.00
2019-02-28T15:28:57.468Z,544.00
2019-02-28T15:29:58.906Z,496.00
2019-02-28T15:30:57.430Z,404.00
2019-02-28T15:31:57.410Z,348.00
2019-02-28T15:32:57.372Z,332.00
2019-02-28T15:33:57.422Z,292.00
2019-02-28T15:34:57.376Z,284.00
2019-02-28T15:35:57.344Z,284.00
2019-02-28T15:36:59.178Z,280.00
2019-02-28T15:37:57.371Z,268.00
2019-02-28T15:38:57.345Z,240.00
2019-02-28T15:39:57.298Z,268.00
2019-02-28T15:40:58.829Z,288.00
2019-02-28T15:41:57.291Z,240.00
2019-02-28T15:42:57.288Z,220.00
2019-02-28T15:43:57.258Z,292.00
2019-02-28T15:45:00.299Z,284.00
2019-02-28T15:46:19.363Z,220.00
2019-02-28T15:47:22.686Z,188.00
2019-02-28T15:48:19.353Z,140.00
2019-02-28T15:49:19.327Z,132.00
2019-02-28T15:50:19.321Z,152.00
2019-02-28T15:51:19.323Z,152.00
2019-02-28T15:52:19.284Z,144.00
2019-02-28T15:53:19.270Z,144.00
2019-02-28T15:54:21.639Z,104.00
2019-02-28T15:55:19.252Z,92.00
2019-02-28T15:56:20.043Z,88.00
2019-02-28T15:57:19.231Z,76.00
2019-02-28T15:58:19.232Z,84.00
2019-02-28T15:59:19.216Z,76.00
2019-02-28T16:00:22.127Z,76.00
2019-02-28T16:01:19.197Z,80.00
2019-02-28T16:02:19.169Z,92.00
2019-02-28T16:03:19.237Z,100.00
2019-02-28T16:04:19.167Z,104.00
2019-02-28T16:05:19.155Z,116.00
2019-02-28T16:06:19.756Z,104.00
2019-02-28T16:07:19.139Z,96.00
2019-02-28T16:08:19.114Z,92.00
2019-02-28T16:09:21.413Z,88.00
2019-02-28T16:10:19.084Z,88.00
2019-02-28T16:11:19.115Z,96.00
2019-02-28T16:12:19.061Z,92.00
2019-02-28T16:13:19.065Z,96.00
2019-02-28T16:14:19.044Z,104.00
2019-02-28T16:15:19.039Z,116.00
2019-02-28T16:16:21.490Z,124.00
2019-02-28T16:17:19.064Z,120.00
2019-02-28T16:18:19.256Z,120.00
2019-02-28T16:19:21.987Z,128.00
2019-02-28T16:20:19.017Z,132.00
2019-02-28T16:21:18.967Z,144.00
2019-02-28T16:22:19.097Z,164.00
2019-02-28T16:23:18.928Z,168.00
2019-02-28T16:24:18.933Z,200.00
2019-02-28T16:25:18.910Z,256.00
2019-02-28T16:26:21.729Z,236.00
2019-02-28T16:27:18.888Z,196.00
2019-02-28T16:28:20.000Z,176.00
2019-02-28T16:29:20.711Z,136.00
2019-02-28T16:30:18.867Z,112.00
2019-02-28T16:31:18.882Z,100.00
2019-02-28T16:32:18.844Z,100.00
2019-02-28T16:33:20.930Z,108.00
2019-02-28T16:34:18.807Z,104.00
2019-02-28T16:35:18.800Z,104.00
2019-02-28T16:36:18.792Z,108.00
2019-02-28T16:37:18.964Z,108.00
2019-02-28T16:38:18.776Z,92.00
2019-02-28T16:39:18.751Z,84.00
2019-02-28T16:40:20.748Z,76.00
2019-02-28T16:41:40.601Z,72.00
2019-02-28T16:42:43.428Z,68.00
2019-02-28T16:43:40.589Z,68.00
2019-02-28T16:44:40.593Z,64.00
2019-02-28T16:45:41.839Z,64.00
2019-02-28T16:46:40.550Z,64.00
2019-02-28T16:47:40.538Z,60.00
2019-02-28T16:48:40.524Z,56.00
2019-02-28T16:49:41.426Z,48.00
2019-02-28T16:50:40.504Z,52.00
2019-02-28T16:51:40.512Z,52.00
2019-02-28T16:52:40.713Z,48.00
2019-02-28T16:53:40.487Z,40.00
2019-02-28T16:54:40.457Z,36.00
2019-02-28T16:55:40.509Z,28.00
2019-02-28T16:56:40.438Z,28.00
2019-02-28T16:57:43.571Z,28.00
2019-02-28T16:59:02.443Z,28.00
2019-02-28T17:00:03.925Z,28.00
2019-02-28T17:01:02.412Z,24.00
2019-02-28T17:02:02.434Z,24.00
2019-02-28T17:03:04.110Z,20.00
2019-02-28T17:04:02.387Z,16.00
2019-02-28T17:05:02.497Z,16.00
2019-02-28T17:06:02.398Z,16.00
2019-02-28T17:07:02.762Z,12.00
2019-02-28T17:08:02.357Z,12.00
2019-02-28T17:09:02.414Z,8.00
2019-02-28T17:10:04.553Z,8.00
2019-02-28T17:11:02.332Z,8.00
2019-02-28T17:12:02.287Z,8.00
2019-02-28T17:13:02.916Z,8.00
2019-02-28T17:14:02.277Z,8.00
2019-02-28T17:15:02.250Z,4.00
2019-02-28T17:16:02.619Z,8.00
2019-02-28T17:17:02.237Z,4.00
2019-02-28T17:18:02.282Z,4.00
2019-02-28T17:19:02.211Z,4.00
2019-02-28T17:20:02.998Z,4.00
2019-02-28T17:22:04.682Z,4.00
2019-02-28T17:23:02.257Z,4.00
2019-02-28T17:24:02.155Z,4.00
2019-02-28T17:25:02.135Z,4.00
